RCTP/TPE METAR and TAF weather

Enter ICAO airport designator
Station Type Date Time Source
RCTP METAR 2019/12/08 03:30 UTC NOAA

RCTP 080330Z 05022KT 9999 FEW015 SCT050 19/09 Q1025 NOSIG RMK A3027


Station Type Date Time Source
RCTP Decoded METAR 2019/12/08 03:30 UTC NOAA

Chiang Kai Shek, Taiwan (RCTP) 25-05N 121-13E
Dec 07, 2019 - 10:30 PM EST / 2019.12.08 0330 UTC
Wind: from the NE (050 degrees) at 25 MPH (22 KT):0
Visibility: greater than 7 mile(s):0
Sky conditions: partly cloudy
Temperature: 66 F (19 C)
Dew Point: 48 F (9 C)
Relative Humidity: 52%
Pressure (altimeter): 30.27 in. Hg (1025 hPa)
ob: RCTP 080330Z 05022KT 9999 FEW015 SCT050 19/09 Q1025 NOSIG RMK A3027
cycle: 3

Station Type Date Time Source
RCTP TAF 2019/12/07 18:03 UTC NOAA

TAF RCTP 071700Z 0718/0824 06018KT 9999 FEW015 SCT020 BKN035
TEMPO 0718/0724 08012KT FEW010 BKN018 BKN030
TEMPO 0804/0810 03020KT
TEMPO 0814/0820 10012KT
TEMPO 0820/0824 FEW010 BKN016 BKN030

Example: see airport list